Miller Field Valentine US
ICAO: KVTN
IATA: VTN
Category: Medium
Scheduled Services: No

Elevation: 2596 ft
TransAlt. 18000 ft.

Airport Communications:
ASOS:118.075
DENVER CNTR:127.95
CTAF/UNICOM:122.8

KVTN Zoom In..

If you have problems with the map follow the link
https://www.worldairports.se/pages/airport.php?
ICAO=KVTN

Runways:

(A) RW 03 length 3701 ft width 60 ft
---- / hdg 28

(B) RW 14 length 4704 ft width 75 ft
---- / hdg 137

(C) RW 21 length 3701 ft width 60 ft
---- / hdg 208

(D) RW 32 length 4704 ft width 75 ft
---- / hdg 317

Location; KVTN
Day. 10 / Time. 01.52 Zulu
* Altimeter: 29.94
* Temperature: -02° c. -28.4°f.
* Wind from: 270° Speed 08 kn.
Dewpoint: -08° c.
Visibility: 10 Statute Miles.
Clouds: Overcast 6000 ft.

KVTN 100152Z AUTO 27008KT 10SM OVC060 M02/M08 A2994 RMK AO2 SLP176 T10171083


Wind From 270°
Speed 08 kn.

 
 
jpsmedia worldairports.se 2019   terms of use